createdAt,value
2018-04-11T00:00:21.310Z,19.82
2018-04-11T00:00:47.443Z,19.92
2018-04-11T00:01:13.590Z,19.79
2018-04-11T00:01:39.733Z,19.79
2018-04-11T00:02:05.868Z,19.82
2018-04-11T00:02:32.010Z,19.82
2018-04-11T00:02:58.157Z,19.79
2018-04-11T00:03:24.290Z,19.82
2018-04-11T00:03:50.453Z,19.84
2018-04-11T00:04:16.614Z,19.79
2018-04-11T00:04:42.768Z,19.79
2018-04-11T00:05:08.912Z,19.76
2018-04-11T00:05:35.052Z,19.7
2018-04-11T00:06:01.191Z,19.51
2018-04-11T00:06:27.334Z,19.52
2018-04-11T00:06:53.495Z,19.27
2018-04-11T00:07:19.677Z,19.26
2018-04-11T00:07:45.804Z,19.19
2018-04-11T00:08:11.958Z,19.08
2018-04-11T00:08:38.099Z,18.92
2018-04-11T00:09:04.242Z,18.92
2018-04-11T00:09:30.379Z,18.81
2018-04-11T00:09:56.524Z,18.81
2018-04-11T00:10:22.666Z,18.83
2018-04-11T00:10:48.804Z,18.88
2018-04-11T00:11:14.950Z,18.93
2018-04-11T00:11:41.115Z,18.99
2018-04-11T00:12:07.296Z,19.02
2018-04-11T00:12:33.463Z,19.08
2018-04-11T00:12:59.600Z,19.09
2018-04-11T00:13:25.742Z,19.09
2018-04-11T00:13:51.880Z,19.12
2018-04-11T00:14:18.024Z,19.24
2018-04-11T00:14:44.161Z,19.16
2018-04-11T00:15:10.304Z,19.12
2018-04-11T00:15:36.464Z,19.12
2018-04-11T00:16:02.606Z,19.27
2018-04-11T00:16:28.748Z,19.26
2018-04-11T00:16:54.883Z,19.21
2018-04-11T00:17:21.048Z,19.21
2018-04-11T00:17:47.185Z,19.22
2018-04-11T00:18:13.331Z,19.24
2018-04-11T00:18:39.466Z,19.26
2018-04-11T00:19:05.611Z,19.27
2018-04-11T00:19:31.751Z,19.24
2018-04-11T00:19:57.894Z,19.08
2018-04-11T00:20:24.029Z,19.26
2018-04-11T00:20:50.172Z,19.08
2018-04-11T00:21:16.317Z,19.08
2018-04-11T00:21:42.473Z,18.95
2018-04-11T00:22:08.645Z,18.99
2018-04-11T00:22:34.807Z,19.02
2018-04-11T00:23:00.957Z,18.9
2018-04-11T00:23:27.097Z,18.88
2018-04-11T00:23:53.243Z,18.86
2018-04-11T00:24:19.407Z,18.9
2018-04-11T00:24:45.548Z,19
2018-04-11T00:25:11.706Z,19
2018-04-11T00:25:37.871Z,18.93
2018-04-11T00:26:04.017Z,18.9
2018-04-11T00:26:30.152Z,18.78
2018-04-11T00:26:56.301Z,18.83
2018-04-11T00:27:22.435Z,18.77
2018-04-11T00:27:48.583Z,18.66
2018-04-11T00:28:14.722Z,18.6
2018-04-11T00:28:40.861Z,18.6
2018-04-11T00:29:07.000Z,18.53
2018-04-11T00:29:33.139Z,18.43
2018-04-11T00:29:59.277Z,18.43
2018-04-11T00:30:25.416Z,18.29
2018-04-11T00:30:51.560Z,18.26
2018-04-11T00:31:17.718Z,18.29
2018-04-11T00:31:43.859Z,18.2
2018-04-11T00:32:09.995Z,18.2
2018-04-11T00:32:36.131Z,18.16
2018-04-11T00:33:02.272Z,18.15
2018-04-11T00:33:28.416Z,18.1
2018-04-11T00:33:54.553Z,18.07
2018-04-11T00:34:20.696Z,18.05
2018-04-11T00:34:46.860Z,17.94
2018-04-11T00:35:13.000Z,17.92
2018-04-11T00:35:39.171Z,17.95
2018-04-11T00:36:05.305Z,17.86
2018-04-11T00:36:31.445Z,17.87
2018-04-11T00:36:57.587Z,17.85
2018-04-11T00:37:23.724Z,17.8
2018-04-11T00:37:49.865Z,17.83
2018-04-11T00:38:16.012Z,17.85
2018-04-11T00:38:42.148Z,17.78
2018-04-11T00:39:08.289Z,17.7
2018-04-11T00:39:34.440Z,17.74
2018-04-11T00:40:00.575Z,17.7
2018-04-11T00:40:26.742Z,17.65
2018-04-11T00:40:52.881Z,17.6
2018-04-11T00:41:19.054Z,17.63
2018-04-11T00:41:45.192Z,17.57
2018-04-11T00:42:11.362Z,17.46
2018-04-11T00:42:37.504Z,17.48
2018-04-11T00:43:03.645Z,17.51
2018-04-11T00:43:29.785Z,17.48
2018-04-11T00:43:55.929Z,17.44
2018-04-11T00:44:22.063Z,17.44
2018-04-11T00:44:48.226Z,17.44
2018-04-11T00:45:14.363Z,17.45
2018-04-11T00:45:40.523Z,17.51
2018-04-11T00:46:06.640Z,17.44
2018-04-11T00:46:32.808Z,17.49
2018-04-11T00:46:58.955Z,17.45
2018-04-11T00:47:25.088Z,17.39
2018-04-11T00:47:51.232Z,17.41
2018-04-11T00:48:17.388Z,17.51
2018-04-11T00:48:43.534Z,17.46
2018-04-11T00:49:09.673Z,17.46
2018-04-11T00:49:35.806Z,17.45
2018-04-11T00:50:01.952Z,17.46
2018-04-11T00:50:28.111Z,17.42
2018-04-11T00:50:54.248Z,17.49
2018-04-11T00:51:20.412Z,17.49
2018-04-11T00:51:46.553Z,17.6
2018-04-11T00:52:12.785Z,17.63
2018-04-11T00:52:38.936Z,17.63
2018-04-11T00:53:05.088Z,17.72
2018-04-11T00:53:31.278Z,17.79
2018-04-11T00:53:57.416Z,17.79
2018-04-11T00:54:23.573Z,17.8
2018-04-11T00:54:49.715Z,17.8
2018-04-11T00:55:15.860Z,17.8
2018-04-11T00:55:42.034Z,17.87
2018-04-11T00:56:08.194Z,17.97
2018-04-11T00:56:34.338Z,17.97
2018-04-11T00:57:00.485Z,17.95
2018-04-11T00:57:26.630Z,17.92
2018-04-11T00:57:52.769Z,17.98
2018-04-11T00:58:18.902Z,17.98
2018-04-11T00:58:45.037Z,17.98
2018-04-11T00:59:11.179Z,17.97
2018-04-11T00:59:37.320Z,17.92
2018-04-11T01:00:03.458Z,17.95
2018-04-11T01:00:29.624Z,17.83
2018-04-11T01:00:55.759Z,17.85
2018-04-11T01:01:21.951Z,17.82
2018-04-11T01:01:48.092Z,17.79
2018-04-11T01:02:14.237Z,17.85
2018-04-11T01:02:40.369Z,17.8
2018-04-11T01:03:06.533Z,17.7
2018-04-11T01:03:32.684Z,17.6
2018-04-11T01:03:58.843Z,17.54
2018-04-11T01:04:24.979Z,17.59
2018-04-11T01:04:51.115Z,17.52
2018-04-11T01:05:17.260Z,17.48
2018-04-11T01:05:43.401Z,17.48
2018-04-11T01:06:09.542Z,17.51
2018-04-11T01:06:35.684Z,17.48
2018-04-11T01:07:01.819Z,17.52
2018-04-11T01:07:27.954Z,17.51
2018-04-11T01:07:54.094Z,17.51
2018-04-11T01:08:20.264Z,17.48
2018-04-11T01:08:46.406Z,17.48
2018-04-11T01:09:12.544Z,17.56
2018-04-11T01:09:38.691Z,17.49
2018-04-11T01:10:04.828Z,17.64
2018-04-11T01:10:30.970Z,17.64
2018-04-11T01:10:57.115Z,17.6
2018-04-11T01:11:23.259Z,17.52
2018-04-11T01:11:49.399Z,17.48
2018-04-11T01:12:15.557Z,17.54
2018-04-11T01:12:41.702Z,17.51
2018-04-11T01:13:07.843Z,17.46
2018-04-11T01:13:33.980Z,17.63
2018-04-11T01:14:00.117Z,17.63
2018-04-11T01:14:26.278Z,17.49
2018-04-11T01:14:52.461Z,17.63
2018-04-11T01:15:18.602Z,17.49
2018-04-11T01:15:44.762Z,17.6
2018-04-11T01:16:10.898Z,17.65
2018-04-11T01:16:37.040Z,17.65
2018-04-11T01:17:03.183Z,17.67
2018-04-11T01:17:29.319Z,17.71
2018-04-11T01:17:55.454Z,17.65
2018-04-11T01:18:21.596Z,17.57
2018-04-11T01:18:47.760Z,17.65
2018-04-11T01:19:13.904Z,17.56
2018-04-11T01:19:40.045Z,17.54
2018-04-11T01:20:06.184Z,17.45
2018-04-11T01:20:32.327Z,17.41
2018-04-11T01:20:58.462Z,17.36
2018-04-11T01:21:24.599Z,17.3
2018-04-11T01:21:50.738Z,17.27
2018-04-11T01:22:16.904Z,17.22
2018-04-11T01:22:43.048Z,17.26
2018-04-11T01:23:09.185Z,17.3
2018-04-11T01:23:35.322Z,17.12
2018-04-11T01:24:01.513Z,17.2
2018-04-11T01:24:27.669Z,17.26
2018-04-11T01:24:53.811Z,17.24
2018-04-11T01:25:19.948Z,17.27
2018-04-11T01:25:46.094Z,17.24
2018-04-11T01:26:12.225Z,17.2
2018-04-11T01:26:38.363Z,17.2
2018-04-11T01:27:04.508Z,17.2
2018-04-11T01:27:30.650Z,17.08
2018-04-11T01:27:56.792Z,17.11
2018-04-11T01:28:22.930Z,16.99
2018-04-11T01:28:49.066Z,17.05
2018-04-11T01:29:15.202Z,16.97
2018-04-11T01:29:41.361Z,16.96
2018-04-11T01:30:07.508Z,17.01
2018-04-11T01:30:33.649Z,17.06
2018-04-11T01:30:59.813Z,17.01
2018-04-11T01:31:25.971Z,17.09
2018-04-11T01:31:52.109Z,17.05
2018-04-11T01:32:18.278Z,17.11
2018-04-11T01:32:44.416Z,17.09
2018-04-11T01:33:10.554Z,17.14
2018-04-11T01:33:36.695Z,17.02
2018-04-11T01:34:02.837Z,16.99
2018-04-11T01:34:28.979Z,17.02
2018-04-11T01:34:55.113Z,16.93
2018-04-11T01:35:21.252Z,16.9
2018-04-11T01:35:47.392Z,16.97
2018-04-11T01:36:13.539Z,16.89
2018-04-11T01:36:39.705Z,16.89
2018-04-11T01:37:05.842Z,16.84
2018-04-11T01:37:31.981Z,16.84
2018-04-11T01:37:58.122Z,16.81
2018-04-11T01:38:24.266Z,16.86
2018-04-11T01:38:50.407Z,16.84
2018-04-11T01:39:16.543Z,16.87
2018-04-11T01:39:42.686Z,16.87
2018-04-11T01:40:08.850Z,16.81
2018-04-11T01:40:35.003Z,16.83
2018-04-11T01:41:01.140Z,16.79
2018-04-11T01:41:27.276Z,16.72
2018-04-11T01:41:53.471Z,16.72
2018-04-11T01:42:19.607Z,16.69
2018-04-11T01:42:45.746Z,16.76
2018-04-11T01:43:11.887Z,16.66
2018-04-11T01:43:38.055Z,16.6
2018-04-11T01:44:04.193Z,16.71
2018-04-11T01:44:30.332Z,16.57
2018-04-11T01:44:56.475Z,16.58
2018-04-11T01:45:22.632Z,16.65
2018-04-11T01:45:48.779Z,16.6
2018-04-11T01:46:14.914Z,16.54
2018-04-11T01:46:41.054Z,16.53
2018-04-11T01:47:07.193Z,16.5
2018-04-11T01:47:33.336Z,16.42
2018-04-11T01:47:59.470Z,16.46
2018-04-11T01:48:25.636Z,16.39
2018-04-11T01:48:51.776Z,16.41
2018-04-11T01:49:17.917Z,16.35
2018-04-11T01:49:44.057Z,16.29
2018-04-11T01:50:10.193Z,16.33
2018-04-11T01:50:36.333Z,16.28
2018-04-11T01:51:02.475Z,16.24
2018-04-11T01:51:28.642Z,16.31
2018-04-11T01:51:54.785Z,16.29
2018-04-11T01:52:20.923Z,16.33
2018-04-11T01:52:47.112Z,16.39
2018-04-11T01:53:13.243Z,16.46
2018-04-11T01:53:39.433Z,16.46
2018-04-11T01:54:05.575Z,16.47
2018-04-11T01:54:31.729Z,16.41
2018-04-11T01:54:57.895Z,16.5
2018-04-11T01:55:24.031Z,16.5
2018-04-11T01:55:50.187Z,16.56
2018-04-11T01:56:16.306Z,16.42
2018-04-11T01:56:42.471Z,16.53
2018-04-11T01:57:08.611Z,16.47
2018-04-11T01:57:34.752Z,16.56
2018-04-11T01:58:00.890Z,16.51
2018-04-11T01:58:27.032Z,16.58
2018-04-11T01:58:53.175Z,16.61
2018-04-11T01:59:19.318Z,16.65
2018-04-11T01:59:45.449Z,16.64
2018-04-11T02:00:11.626Z,16.58
2018-04-11T02:00:37.763Z,16.61
2018-04-11T02:01:03.924Z,16.56
2018-04-11T02:01:30.071Z,16.61
2018-04-11T02:01:56.238Z,16.58
2018-04-11T02:02:22.370Z,16.57
2018-04-11T02:02:48.516Z,16.57
2018-04-11T02:03:14.653Z,16.51
2018-04-11T02:03:40.799Z,16.61
2018-04-11T02:04:06.934Z,16.54
2018-04-11T02:04:33.075Z,16.51
2018-04-11T02:04:59.217Z,16.5
2018-04-11T02:05:25.366Z,16.42
2018-04-11T02:05:51.507Z,16.47
2018-04-11T02:06:17.643Z,16.49
2018-04-11T02:06:43.782Z,16.43
2018-04-11T02:07:09.923Z,16.47
2018-04-11T02:07:36.068Z,16.42
2018-04-11T02:08:02.208Z,16.41
2018-04-11T02:08:28.370Z,16.42
2018-04-11T02:08:54.512Z,16.38
2018-04-11T02:09:20.646Z,16.36
2018-04-11T02:09:46.833Z,16.36
2018-04-11T02:10:12.968Z,16.28
2018-04-11T02:10:39.109Z,16.23
2018-04-11T02:11:05.244Z,16.32
2018-04-11T02:11:31.434Z,16.24
2018-04-11T02:11:57.579Z,16.24
2018-04-11T02:12:23.719Z,16.23
2018-04-11T02:12:49.863Z,16.16
2018-04-11T02:13:16.001Z,16.13
2018-04-11T02:13:42.164Z,16.2
2018-04-11T02:14:08.306Z,16.17
2018-04-11T02:14:34.450Z,16.13
2018-04-11T02:15:00.584Z,16.21
2018-04-11T02:15:26.724Z,16.31
2018-04-11T02:15:52.866Z,16.2
2018-04-11T02:16:19.006Z,16.29
2018-04-11T02:16:45.170Z,16.31
2018-04-11T02:17:11.318Z,16.28
2018-04-11T02:17:37.454Z,16.36
2018-04-11T02:18:03.593Z,16.29
2018-04-11T02:18:29.722Z,16.28
2018-04-11T02:18:55.868Z,16.31
2018-04-11T02:19:22.025Z,16.35
2018-04-11T02:19:48.186Z,16.39
2018-04-11T02:20:14.348Z,16.41
2018-04-11T02:20:40.485Z,16.5
2018-04-11T02:21:06.652Z,16.43
2018-04-11T02:21:32.787Z,16.41
2018-04-11T02:21:58.928Z,16.39
2018-04-11T02:22:25.071Z,16.39
2018-04-11T02:22:51.233Z,16.35
2018-04-11T02:23:17.398Z,16.26
2018-04-11T02:23:43.537Z,16.23
2018-04-11T02:24:09.692Z,16.29
2018-04-11T02:24:35.856Z,16.31
2018-04-11T02:25:02.012Z,16.26
2018-04-11T02:25:28.180Z,16.32
2018-04-11T02:25:54.315Z,16.33
2018-04-11T02:26:20.456Z,16.46
2018-04-11T02:26:46.598Z,16.43
2018-04-11T02:27:12.732Z,16.41
2018-04-11T02:27:38.879Z,16.36
2018-04-11T02:28:05.013Z,16.31
2018-04-11T02:28:31.153Z,16.33
2018-04-11T02:28:57.290Z,16.39
2018-04-11T02:29:23.454Z,16.35
2018-04-11T02:29:49.619Z,16.38
2018-04-11T02:30:15.757Z,16.41
2018-04-11T02:30:41.917Z,16.41
2018-04-11T02:31:08.061Z,16.36
2018-04-11T02:31:34.196Z,16.32
2018-04-11T02:32:00.418Z,16.24
2018-04-11T02:32:26.503Z,16.21
2018-04-11T02:32:52.639Z,16.28
2018-04-11T02:33:18.780Z,16.17
2018-04-11T02:33:44.919Z,16.13
2018-04-11T02:34:11.109Z,16.02
2018-04-11T02:34:37.268Z,15.94
2018-04-11T02:35:03.407Z,15.84
2018-04-11T02:35:29.544Z,15.84
2018-04-11T02:35:55.733Z,15.8
2018-04-11T02:36:21.877Z,15.84
2018-04-11T02:36:48.017Z,15.76
2018-04-11T02:37:14.197Z,15.67
2018-04-11T02:37:40.377Z,15.75
2018-04-11T02:38:06.567Z,15.73
2018-04-11T02:38:32.760Z,15.64
2018-04-11T02:38:58.899Z,15.62
2018-04-11T02:39:25.041Z,15.51
2018-04-11T02:39:51.254Z,15.59
2018-04-11T02:40:17.385Z,15.54
2018-04-11T02:40:43.531Z,15.52
2018-04-11T02:41:09.694Z,15.49
2018-04-11T02:41:35.856Z,15.52
2018-04-11T02:42:02.002Z,15.57
2018-04-11T02:42:28.131Z,15.49
2018-04-11T02:42:54.309Z,15.58
2018-04-11T02:43:20.446Z,15.61
2018-04-11T02:43:46.608Z,15.62
2018-04-11T02:44:12.747Z,15.61
2018-04-11T02:44:38.890Z,15.64
2018-04-11T02:45:05.062Z,15.64
2018-04-11T02:45:31.224Z,15.61
2018-04-11T02:45:57.435Z,15.55
2018-04-11T02:46:23.634Z,15.67
2018-04-11T02:46:49.793Z,15.58
2018-04-11T02:47:15.964Z,15.61
2018-04-11T02:47:42.106Z,15.59
2018-04-11T02:48:08.297Z,15.57
2018-04-11T02:48:34.465Z,15.62
2018-04-11T02:49:00.608Z,15.73
2018-04-11T02:49:26.779Z,15.62
2018-04-11T02:49:52.927Z,15.64
2018-04-11T02:50:19.090Z,15.52
2018-04-11T02:50:45.227Z,15.57
2018-04-11T02:51:11.373Z,15.47
2018-04-11T02:51:37.531Z,15.52
2018-04-11T02:52:03.666Z,15.46
2018-04-11T02:52:29.882Z,15.39
2018-04-11T02:52:56.028Z,15.43
2018-04-11T02:53:22.164Z,15.46
2018-04-11T02:53:48.332Z,15.44
2018-04-11T02:54:14.482Z,15.36
2018-04-11T02:54:40.641Z,15.42
2018-04-11T02:55:06.801Z,15.47
2018-04-11T02:55:32.945Z,15.37
2018-04-11T02:55:59.082Z,15.33
2018-04-11T02:56:25.225Z,15.44
2018-04-11T02:56:51.385Z,15.36
2018-04-11T02:57:17.550Z,15.35
2018-04-11T02:57:43.710Z,15.35
2018-04-11T02:58:09.886Z,15.42
2018-04-11T02:58:36.092Z,15.47
2018-04-11T02:59:02.253Z,15.42
2018-04-11T02:59:28.419Z,15.39
2018-04-11T02:59:54.564Z,15.43
2018-04-11T03:00:20.749Z,15.31
2018-04-11T03:00:46.904Z,15.24
2018-04-11T03:01:13.094Z,15.28
2018-04-11T03:01:39.232Z,15.11
2018-04-11T03:02:05.390Z,15.15
2018-04-11T03:02:31.552Z,15.17
2018-04-11T03:02:57.718Z,15.17
2018-04-11T03:03:23.854Z,15.15
2018-04-11T03:03:50.022Z,15.14
2018-04-11T03:04:16.161Z,15.11
2018-04-11T03:04:42.325Z,15.22
2018-04-11T03:05:08.459Z,15.14
2018-04-11T03:05:34.599Z,15.14
2018-04-11T03:06:00.734Z,15.11
2018-04-11T03:06:26.928Z,15.29
2018-04-11T03:06:53.083Z,15.24
2018-04-11T03:07:19.244Z,15.25
2018-04-11T03:07:45.396Z,15.27
2018-04-11T03:08:11.571Z,15.18
2018-04-11T03:08:37.707Z,15.14
2018-04-11T03:09:03.851Z,15.15
2018-04-11T03:09:30.038Z,15.1
2018-04-11T03:09:56.180Z,15.15
2018-04-11T03:10:22.341Z,15.11
2018-04-11T03:10:48.505Z,15.03
2018-04-11T03:11:14.660Z,15.02
2018-04-11T03:11:40.783Z,15
2018-04-11T03:12:06.927Z,15
2018-04-11T03:12:33.070Z,14.99
2018-04-11T03:12:59.208Z,15.04
2018-04-11T03:13:25.351Z,14.99
2018-04-11T03:13:51.492Z,15.03
2018-04-11T03:14:17.630Z,15.03
2018-04-11T03:14:43.768Z,14.99
2018-04-11T03:15:09.906Z,14.92
2018-04-11T03:15:36.072Z,14.92
2018-04-11T03:16:02.235Z,14.92
2018-04-11T03:16:28.394Z,14.88
2018-04-11T03:16:54.535Z,14.96
2018-04-11T03:17:20.697Z,14.91
2018-04-11T03:17:46.841Z,14.86
2018-04-11T03:18:13.005Z,14.82
2018-04-11T03:18:39.146Z,14.82
2018-04-11T03:19:05.312Z,14.88
2018-04-11T03:19:31.448Z,14.77
2018-04-11T03:19:57.616Z,14.7
2018-04-11T03:20:23.774Z,14.85
2018-04-11T03:20:49.912Z,14.7
2018-04-11T03:21:16.070Z,14.77
2018-04-11T03:21:42.243Z,14.73
2018-04-11T03:22:08.399Z,14.81
2018-04-11T03:22:34.538Z,14.84
2018-04-11T03:23:00.685Z,14.91
2018-04-11T03:23:26.847Z,14.82
2018-04-11T03:23:52.987Z,14.94
2018-04-11T03:24:19.146Z,14.86
2018-04-11T03:24:45.308Z,14.94
2018-04-11T03:25:11.454Z,14.85
2018-04-11T03:25:37.585Z,14.94
2018-04-11T03:26:03.754Z,14.82
2018-04-11T03:26:29.896Z,14.82
2018-04-11T03:26:56.048Z,14.91
2018-04-11T03:27:22.188Z,14.84
2018-04-11T03:27:48.325Z,14.82
2018-04-11T03:28:14.486Z,14.97
2018-04-11T03:28:40.626Z,15.04
2018-04-11T03:29:06.772Z,14.97
2018-04-11T03:29:32.909Z,15
2018-04-11T03:29:59.075Z,15.03
2018-04-11T03:30:25.240Z,15.09
2018-04-11T03:30:51.404Z,15.03
2018-04-11T03:31:17.590Z,15.02
2018-04-11T03:31:43.780Z,14.92
2018-04-11T03:32:09.939Z,14.91
2018-04-11T03:32:36.108Z,14.92
2018-04-11T03:33:02.299Z,14.88
2018-04-11T03:33:28.428Z,14.81
2018-04-11T03:33:54.543Z,14.88
2018-04-11T03:34:20.683Z,14.82
2018-04-11T03:34:46.825Z,14.82
2018-04-11T03:35:12.962Z,14.7
2018-04-11T03:35:39.102Z,14.7
2018-04-11T03:36:05.238Z,14.7
2018-04-11T03:36:31.407Z,14.89
2018-04-11T03:36:57.548Z,14.69
2018-04-11T03:37:23.729Z,14.84
2018-04-11T03:37:49.864Z,14.84
2018-04-11T03:38:16.006Z,14.66
2018-04-11T03:38:42.143Z,14.63
2018-04-11T03:39:08.283Z,14.62
2018-04-11T03:39:34.423Z,14.68
2018-04-11T03:40:00.562Z,14.65
2018-04-11T03:40:26.697Z,14.66
2018-04-11T03:40:52.837Z,14.68
2018-04-11T03:41:19.002Z,14.53
2018-04-11T03:41:45.138Z,14.54
2018-04-11T03:42:11.283Z,14.53
2018-04-11T03:42:37.427Z,14.54
2018-04-11T03:43:03.587Z,14.51
2018-04-11T03:43:29.750Z,14.51
2018-04-11T03:43:55.905Z,14.59
2018-04-11T03:44:22.089Z,14.51
2018-04-11T03:44:48.230Z,14.58
2018-04-11T03:45:14.372Z,14.48
2018-04-11T03:45:40.516Z,14.54
2018-04-11T03:46:06.646Z,14.53
2018-04-11T03:46:32.812Z,14.54
2018-04-11T03:46:58.948Z,14.47
2018-04-11T03:47:25.088Z,14.51
2018-04-11T03:47:51.250Z,14.47
2018-04-11T03:48:17.411Z,14.47
2018-04-11T03:48:43.586Z,14.48
2018-04-11T03:49:09.716Z,14.5
2018-04-11T03:49:35.857Z,14.55
2018-04-11T03:50:01.995Z,14.54
2018-04-11T03:50:28.161Z,14.51
2018-04-11T03:50:54.321Z,14.58
2018-04-11T03:51:20.458Z,14.48
2018-04-11T03:51:46.625Z,14.35
2018-04-11T03:52:12.759Z,14.36
2018-04-11T03:52:38.930Z,14.25
2018-04-11T03:53:05.097Z,14.29
2018-04-11T03:53:31.260Z,14.2
2018-04-11T03:53:57.422Z,14.2
2018-04-11T03:54:23.566Z,14.3
2018-04-11T03:54:49.709Z,14.2
2018-04-11T03:55:15.848Z,14.25
2018-04-11T03:55:42.012Z,14.26
2018-04-11T03:56:08.150Z,14.25
2018-04-11T03:56:34.293Z,14.12
2018-04-11T03:57:00.455Z,14.28
2018-04-11T03:57:26.597Z,14.2
2018-04-11T03:57:52.753Z,14.11
2018-04-11T03:58:18.899Z,14.11
2018-04-11T03:58:45.063Z,14.12
2018-04-11T03:59:11.224Z,14.04
2018-04-11T03:59:37.357Z,14.05
2018-04-11T04:00:03.520Z,13.99
2018-04-11T04:00:29.660Z,14
2018-04-11T04:00:55.873Z,14.15
2018-04-11T04:01:22.041Z,14.08
2018-04-11T04:01:48.205Z,14.08
2018-04-11T04:02:14.350Z,14.11
2018-04-11T04:02:40.512Z,14.1
2018-04-11T04:03:06.677Z,14.03
2018-04-11T04:03:32.864Z,14.14
2018-04-11T04:03:59.006Z,14.08
2018-04-11T04:04:25.150Z,14.07
2018-04-11T04:04:51.322Z,14.12
2018-04-11T04:05:17.486Z,14.11
2018-04-11T04:05:43.625Z,14.18
2018-04-11T04:06:09.769Z,14.11
2018-04-11T04:06:35.909Z,14.28
2018-04-11T04:07:02.048Z,14.2
2018-04-11T04:07:28.212Z,14.15
2018-04-11T04:07:54.377Z,14.14
2018-04-11T04:08:20.515Z,14.08
2018-04-11T04:08:46.680Z,13.97
2018-04-11T04:09:12.880Z,14.07
2018-04-11T04:09:39.015Z,13.96
2018-04-11T04:10:05.154Z,14
2018-04-11T04:10:31.324Z,14
2018-04-11T04:10:57.492Z,14.04
2018-04-11T04:11:23.637Z,14.12
2018-04-11T04:11:49.793Z,14.12
2018-04-11T04:12:15.929Z,14.14
2018-04-11T04:12:42.098Z,14.08
2018-04-11T04:13:08.236Z,14.08
2018-04-11T04:13:34.384Z,14.15
2018-04-11T04:14:00.548Z,14.2
2018-04-11T04:14:26.687Z,14.23
2018-04-11T04:14:52.828Z,14.22
2018-04-11T04:15:18.966Z,14.08
2018-04-11T04:15:45.100Z,14.1
2018-04-11T04:16:11.247Z,14.08
2018-04-11T04:16:37.376Z,14.14
2018-04-11T04:17:03.538Z,14.15
2018-04-11T04:17:29.683Z,14.11
2018-04-11T04:17:55.838Z,14.12
2018-04-11T04:18:21.976Z,14.23
2018-04-11T04:18:48.115Z,14.25
2018-04-11T04:19:14.251Z,14.29
2018-04-11T04:19:40.387Z,14.33
2018-04-11T04:20:06.529Z,14.33
2018-04-11T04:20:32.692Z,14.4
2018-04-11T04:20:58.830Z,14.25
2018-04-11T04:21:24.968Z,14.23
2018-04-11T04:21:51.134Z,14.22
2018-04-11T04:22:17.274Z,14.25
2018-04-11T04:22:43.408Z,14.26
2018-04-11T04:23:09.552Z,14.23
2018-04-11T04:23:35.684Z,14.26
2018-04-11T04:24:01.832Z,14.2
2018-04-11T04:24:27.995Z,14.25
2018-04-11T04:24:54.170Z,14.2
2018-04-11T04:25:20.300Z,14.25
2018-04-11T04:25:46.443Z,14.26
2018-04-11T04:26:12.599Z,14.26
2018-04-11T04:26:38.726Z,14.2
2018-04-11T04:27:04.861Z,14.25
2018-04-11T04:27:31.003Z,14.25
2018-04-11T04:27:57.131Z,14.28
2018-04-11T04:28:23.274Z,14.22
2018-04-11T04:28:49.409Z,14.11
2018-04-11T04:29:15.579Z,14.18
2018-04-11T04:29:41.723Z,14.18
2018-04-11T04:30:07.886Z,14.1
2018-04-11T04:30:34.029Z,14.15
2018-04-11T04:31:00.167Z,14.12
2018-04-11T04:31:26.309Z,14.12
2018-04-11T04:31:52.446Z,14.14
2018-04-11T04:32:18.588Z,14.14
2018-04-11T04:32:44.749Z,14.11
2018-04-11T04:33:10.887Z,14.12
2018-04-11T04:33:37.044Z,14
2018-04-11T04:34:03.183Z,13.97
2018-04-11T04:34:29.323Z,13.96
2018-04-11T04:34:55.459Z,13.97
2018-04-11T04:35:21.627Z,13.96
2018-04-11T04:35:47.762Z,13.85
2018-04-11T04:36:13.933Z,13.79
2018-04-11T04:36:40.071Z,13.71
2018-04-11T04:37:06.209Z,13.77
2018-04-11T04:37:32.375Z,13.72
2018-04-11T04:37:58.509Z,13.77
2018-04-11T04:38:24.654Z,13.89
2018-04-11T04:38:50.791Z,13.86
2018-04-11T04:39:16.964Z,13.97
2018-04-11T04:39:43.103Z,13.9
2018-04-11T04:40:09.243Z,13.95
2018-04-11T04:40:35.401Z,13.96
2018-04-11T04:41:01.571Z,14
2018-04-11T04:41:27.711Z,13.96
2018-04-11T04:41:53.850Z,13.96
2018-04-11T04:42:20.021Z,13.97
2018-04-11T04:42:46.165Z,14.04
2018-04-11T04:43:12.305Z,14.08
2018-04-11T04:43:38.438Z,13.99
2018-04-11T04:44:04.588Z,13.99
2018-04-11T04:44:30.726Z,13.89
2018-04-11T04:44:56.863Z,13.87
2018-04-11T04:45:22.998Z,13.78
2018-04-11T04:45:49.147Z,13.72
2018-04-11T04:46:15.276Z,13.75
2018-04-11T04:46:41.445Z,13.67
2018-04-11T04:47:07.640Z,13.77
2018-04-11T04:47:33.783Z,13.86
2018-04-11T04:47:59.917Z,13.81
2018-04-11T04:48:26.078Z,13.83
2018-04-11T04:48:52.223Z,13.81
2018-04-11T04:49:18.364Z,13.87
2018-04-11T04:49:44.509Z,13.9
2018-04-11T04:50:10.642Z,13.79
2018-04-11T04:50:36.782Z,13.74
2018-04-11T04:51:02.919Z,13.75
2018-04-11T04:51:29.082Z,13.7
2018-04-11T04:51:55.213Z,13.7
2018-04-11T04:52:21.363Z,13.78
2018-04-11T04:52:47.514Z,13.86
2018-04-11T04:53:13.656Z,13.83
2018-04-11T04:53:39.792Z,13.85
2018-04-11T04:54:05.937Z,13.86
2018-04-11T04:54:32.075Z,13.96
2018-04-11T04:54:58.208Z,13.86
2018-04-11T04:55:24.413Z,13.99
2018-04-11T04:55:50.544Z,14.04
2018-04-11T04:56:16.677Z,14
2018-04-11T04:56:42.812Z,14
2018-04-11T04:57:08.960Z,14.07
2018-04-11T04:57:35.096Z,14.14
2018-04-11T04:58:01.266Z,13.97
2018-04-11T04:58:27.411Z,14
2018-04-11T04:58:53.543Z,14.05
2018-04-11T04:59:19.709Z,14.11
2018-04-11T04:59:45.867Z,13.97
2018-04-11T05:00:12.004Z,14
2018-04-11T05:00:38.147Z,14.04
2018-04-11T05:01:04.280Z,14.15
2018-04-11T05:01:30.450Z,13.99
2018-04-11T05:01:56.588Z,13.97
2018-04-11T05:02:22.733Z,13.87
2018-04-11T05:02:48.872Z,13.89
2018-04-11T05:03:15.003Z,13.93
2018-04-11T05:03:41.145Z,13.95
2018-04-11T05:04:07.316Z,13.93
2018-04-11T05:04:33.460Z,13.87
2018-04-11T05:04:59.622Z,13.87
2018-04-11T05:05:25.753Z,13.85
2018-04-11T05:05:51.901Z,13.86
2018-04-11T05:06:18.038Z,13.83
2018-04-11T05:06:44.175Z,13.86
2018-04-11T05:07:10.319Z,13.83
2018-04-11T05:07:36.465Z,13.89
2018-04-11T05:08:02.597Z,13.83
2018-04-11T05:08:28.762Z,13.89
2018-04-11T05:08:54.948Z,13.86
2018-04-11T05:09:21.090Z,13.86
2018-04-11T05:09:47.253Z,13.85
2018-04-11T05:10:13.451Z,13.85
2018-04-11T05:10:39.597Z,13.72
2018-04-11T05:11:05.727Z,13.79
2018-04-11T05:11:31.873Z,13.71
2018-04-11T05:11:58.014Z,13.6
2018-04-11T05:12:24.174Z,13.71
2018-04-11T05:12:50.319Z,13.62
2018-04-11T05:13:16.454Z,13.65
2018-04-11T05:13:42.614Z,13.59
2018-04-11T05:14:08.758Z,13.59
2018-04-11T05:14:34.892Z,13.59
2018-04-11T05:15:01.056Z,13.57
2018-04-11T05:15:27.192Z,13.57
2018-04-11T05:15:53.331Z,13.59
2018-04-11T05:16:19.471Z,13.6
2018-04-11T05:16:45.636Z,13.62
2018-04-11T05:17:11.796Z,13.68
2018-04-11T05:17:37.960Z,13.67
2018-04-11T05:18:04.098Z,13.57
2018-04-11T05:18:30.238Z,13.7
2018-04-11T05:18:56.402Z,13.62
2018-04-11T05:19:22.539Z,13.74
2018-04-11T05:19:48.680Z,13.62
2018-04-11T05:20:14.848Z,13.71
2018-04-11T05:20:40.984Z,13.75
2018-04-11T05:21:07.173Z,13.78
2018-04-11T05:21:33.360Z,13.77
2018-04-11T05:21:59.481Z,13.87
2018-04-11T05:22:25.650Z,13.81
2018-04-11T05:22:51.808Z,13.92
2018-04-11T05:23:17.973Z,13.93
2018-04-11T05:23:44.114Z,13.71
2018-04-11T05:24:10.257Z,13.72
2018-04-11T05:24:36.399Z,13.65
2018-04-11T05:25:02.549Z,13.62
2018-04-11T05:25:28.695Z,13.67
2018-04-11T05:25:54.837Z,13.57
2018-04-11T05:26:20.990Z,13.5
2018-04-11T05:26:47.166Z,13.49
2018-04-11T05:27:13.334Z,13.62
2018-04-11T05:27:39.463Z,13.59
2018-04-11T05:28:05.636Z,13.68
2018-04-11T05:28:31.779Z,13.74
2018-04-11T05:28:57.914Z,13.71
2018-04-11T05:29:24.051Z,13.7
2018-04-11T05:29:50.220Z,13.71
2018-04-11T05:30:16.354Z,13.68
2018-04-11T05:30:42.500Z,13.6
2018-04-11T05:31:08.657Z,13.59
2018-04-11T05:31:34.848Z,13.5
2018-04-11T05:32:01.018Z,13.5
2018-04-11T05:32:27.184Z,13.52
2018-04-11T05:32:53.340Z,13.44
2018-04-11T05:33:19.482Z,13.28
2018-04-11T05:33:45.651Z,13.35
2018-04-11T05:34:11.788Z,13.27
2018-04-11T05:34:37.938Z,13.23
2018-04-11T05:35:04.074Z,13.27
2018-04-11T05:35:30.211Z,13.31
2018-04-11T05:35:56.356Z,13.49
2018-04-11T05:36:22.500Z,13.41
2018-04-11T05:36:48.630Z,13.47
2018-04-11T05:37:14.767Z,13.38
2018-04-11T05:37:40.910Z,13.3
2018-04-11T05:38:07.068Z,13.37
2018-04-11T05:38:33.213Z,13.42